HKE842 VHHH-ROAH
Flight info
| Callsign | HKE842 |
|---|---|
| Flight time | N/A |
| Altitude | 35000 |
| Route | DALOL V631 ENVAR M750 KUDOS R595 SEDKU Y573 MJC Y57 VELNO |
| Aircraft | A20N/M-SDE2E3FGHIRWXY/LB1 |
Departure
| Time | N/A |
|---|---|
| Airport | Hong Kong International Airport (VHHH) |
Arrival
| Time | 2026-04-30 14:49 |
|---|---|
| Airport | Naha International Airport (ROAH) |
| Time | Latitude | Longitude | Altitude | Speed | Heading |
|---|---|---|---|---|---|
| 2026-04-30 14:28 | 25.30964 | 126.23941 | 19723 ft | 423 kts | 56° |
| 2026-04-30 14:28 | 25.32503 | 126.26706 | 19452 ft | 421 kts | 56° |
| 2026-04-30 14:28 | 25.34036 | 126.29461 | 19180 ft | 420 kts | 56° |
| 2026-04-30 14:29 | 25.37048 | 126.34877 | 18641 ft | 417 kts | 57° |
| 2026-04-30 14:29 | 25.40052 | 126.40284 | 18110 ft | 414 kts | 57° |
| 2026-04-30 14:30 | 25.44543 | 126.48383 | 17314 ft | 410 kts | 57° |
| 2026-04-30 14:31 | 25.47499 | 126.53721 | 16794 ft | 406 kts | 57° |
| 2026-04-30 14:31 | 25.50423 | 126.59016 | 16272 ft | 404 kts | 57° |
| 2026-04-30 14:31 | 25.51887 | 126.61663 | 16015 ft | 404 kts | 57° |
| 2026-04-30 14:32 | 25.54765 | 126.66882 | 15501 ft | 397 kts | 57° |
| 2026-04-30 14:32 | 25.56210 | 126.69517 | 15254 ft | 398 kts | 58° |
| 2026-04-30 14:32 | 25.57630 | 126.72112 | 14986 ft | 393 kts | 58° |
| 2026-04-30 14:33 | 25.59056 | 126.74733 | 14717 ft | 394 kts | 58° |
| 2026-04-30 14:33 | 25.61869 | 126.79907 | 14203 ft | 391 kts | 58° |
| 2026-04-30 14:33 | 25.63276 | 126.82490 | 13953 ft | 389 kts | 58° |
| 2026-04-30 14:34 | 25.64668 | 126.85057 | 13714 ft | 388 kts | 58° |
| 2026-04-30 14:34 | 25.66059 | 126.87591 | 13636 ft | 382 kts | 58° |
| 2026-04-30 14:34 | 25.67426 | 126.90064 | 13533 ft | 370 kts | 58° |
| 2026-04-30 14:34 | 25.68729 | 126.92433 | 13402 ft | 358 kts | 58° |
| 2026-04-30 14:35 | 25.71295 | 126.97133 | 12607 ft | 352 kts | 59° |
| 2026-04-30 14:35 | 25.72538 | 126.99415 | 12184 ft | 345 kts | 59° |
| 2026-04-30 14:35 | 25.73764 | 127.01662 | 11750 ft | 338 kts | 59° |
| 2026-04-30 14:36 | 25.74965 | 127.03871 | 11323 ft | 331 kts | 59° |
| 2026-04-30 14:36 | 25.76145 | 127.06040 | 10899 ft | 328 kts | 59° |
| 2026-04-30 14:36 | 25.77324 | 127.08205 | 10487 ft | 329 kts | 59° |
| 2026-04-30 14:36 | 25.78509 | 127.10379 | 10058 ft | 328 kts | 59° |
| 2026-04-30 14:37 | 25.79657 | 127.12494 | 9726 ft | 324 kts | 59° |
| 2026-04-30 14:37 | 25.80696 | 127.14405 | 9551 ft | 316 kts | 59° |
| 2026-04-30 14:37 | 25.81822 | 127.16479 | 9197 ft | 312 kts | 59° |
| 2026-04-30 14:37 | 25.82934 | 127.18535 | 8817 ft | 310 kts | 59° |
| 2026-04-30 14:38 | 25.84042 | 127.20580 | 8446 ft | 308 kts | 59° |
| 2026-04-30 14:38 | 25.85121 | 127.22574 | 8094 ft | 305 kts | 59° |
| 2026-04-30 14:38 | 25.86210 | 127.24587 | 7785 ft | 300 kts | 59° |
| 2026-04-30 14:38 | 25.87272 | 127.26543 | 7531 ft | 293 kts | 59° |
| 2026-04-30 14:39 | 25.88300 | 127.28439 | 7204 ft | 290 kts | 59° |
| 2026-04-30 14:39 | 25.89305 | 127.30348 | 6832 ft | 289 kts | 64° |
| 2026-04-30 14:39 | 25.90014 | 127.32405 | 6450 ft | 287 kts | 77° |
| 2026-04-30 14:40 | 25.90979 | 127.36645 | 5865 ft | 280 kts | 77° |
| 2026-04-30 14:40 | 25.91467 | 127.38730 | 5553 ft | 277 kts | 77° |
| 2026-04-30 14:40 | 25.91942 | 127.40743 | 5260 ft | 274 kts | 77° |
| 2026-04-30 14:40 | 25.92420 | 127.42780 | 4937 ft | 272 kts | 77° |
| 2026-04-30 14:41 | 25.92897 | 127.44820 | 4566 ft | 273 kts | 77° |
| 2026-04-30 14:41 | 25.93300 | 127.46552 | 4309 ft | 270 kts | 77° |
| 2026-04-30 14:41 | 25.93765 | 127.48559 | 4061 ft | 266 kts | 77° |
| 2026-04-30 14:41 | 25.94215 | 127.50493 | 3951 ft | 256 kts | 76° |
| 2026-04-30 14:42 | 25.94654 | 127.52386 | 3814 ft | 247 kts | 76° |
| 2026-04-30 14:42 | 25.95088 | 127.54237 | 3485 ft | 249 kts | 76° |
| 2026-04-30 14:42 | 25.95503 | 127.56003 | 3160 ft | 252 kts | 76° |
| 2026-04-30 14:42 | 25.95958 | 127.57885 | 2813 ft | 253 kts | 70° |
| 2026-04-30 14:43 | 25.96911 | 127.59501 | 2464 ft | 251 kts | 39° |
| 2026-04-30 14:43 | 25.98332 | 127.60513 | 2157 ft | 247 kts | 25° |
| 2026-04-30 14:43 | 25.99035 | 127.60909 | 2096 ft | 243 kts | 23° |
| 2026-04-30 14:43 | 25.99543 | 127.61181 | 2057 ft | 239 kts | 22° |
| 2026-04-30 14:44 | 26.00728 | 127.61803 | 1998 ft | 231 kts | 22° |
| 2026-04-30 14:44 | 26.01968 | 127.62463 | 1993 ft | 218 kts | 23° |
| 2026-04-30 14:44 | 26.03268 | 127.63180 | 1993 ft | 204 kts | 22° |
| 2026-04-30 14:44 | 26.04501 | 127.63685 | 1996 ft | 185 kts | 9° |
| 2026-04-30 14:45 | 26.05701 | 127.63866 | 1992 ft | 165 kts | 359° |
| 2026-04-30 14:45 | 26.06763 | 127.63873 | 2005 ft | 163 kts | 355° |
| 2026-04-30 14:45 | 26.07901 | 127.63825 | 1963 ft | 163 kts | 354° |
| 2026-04-30 14:45 | 26.09020 | 127.63773 | 1783 ft | 159 kts | 354° |
| 2026-04-30 14:46 | 26.10079 | 127.63724 | 1564 ft | 146 kts | 354° |
| 2026-04-30 14:46 | 26.11012 | 127.63677 | 1383 ft | 144 kts | 354° |
| 2026-04-30 14:46 | 26.12006 | 127.63634 | 1191 ft | 142 kts | 355° |
| 2026-04-30 14:46 | 26.12982 | 127.63585 | 1003 ft | 141 kts | 355° |
| 2026-04-30 14:47 | 26.13920 | 127.63547 | 827 ft | 140 kts | 356° |
| 2026-04-30 14:47 | 26.14885 | 127.63532 | 693 ft | 141 kts | 356° |
| 2026-04-30 14:47 | 26.15845 | 127.63478 | 468 ft | 141 kts | 353° |
| 2026-04-30 14:47 | 26.16846 | 127.63398 | 287 ft | 141 kts | 356° |
| 2026-04-30 14:48 | 26.17791 | 127.63378 | 109 ft | 143 kts | 356° |
| 2026-04-30 14:48 | 26.17925 | 127.63372 | 86 ft | 143 kts | 357° |
| 2026-04-30 14:48 | 26.18388 | 127.63351 | 37 ft | 142 kts | 355° |
| 2026-04-30 14:48 | 26.18453 | 127.63347 | 31 ft | 141 kts | 355° |
| 2026-04-30 14:49 | 26.19056 | 127.63282 | 15 ft | 105 kts | 354° |
| 2026-04-30 14:49 | 26.19354 | 127.63269 | 16 ft | 59 kts | 358° |
| 2026-04-30 14:49 | 26.19514 | 127.63272 | 17 ft | 31 kts | 4° |
| 2026-04-30 14:49 | 26.19633 | 127.63269 | 18 ft | 32 kts | 4° |
| 2026-04-30 14:50 | 26.20088 | 127.63253 | 18 ft | 31 kts | 356° |
| 2026-04-30 14:50 | 26.20274 | 127.63249 | 16 ft | 18 kts | 21° |
| 2026-04-30 14:51 | 26.20299 | 127.63488 | 16 ft | 20 kts | 87° |
| 2026-04-30 14:51 | 26.20306 | 127.63649 | 18 ft | 22 kts | 86° |
| 2026-04-30 14:51 | 26.20321 | 127.63965 | 17 ft | 22 kts | 88° |
| 2026-04-30 14:52 | 26.20326 | 127.64114 | 17 ft | 24 kts | 87° |
| 2026-04-30 14:52 | 26.20329 | 127.64251 | 17 ft | 24 kts | 89° |
| 2026-04-30 14:52 | 26.20330 | 127.64280 | 17 ft | 1 kts | 87° |
| 2026-04-30 14:53 | 26.20359 | 127.64323 | 17 ft | 6 kts | 14° |
| 2026-04-30 14:53 | 26.20398 | 127.64316 | 17 ft | 8 kts | 358° |
| 2026-04-30 14:54 | 26.20540 | 127.64309 | 17 ft | 13 kts | 0° |
| 2026-04-30 14:54 | 26.20757 | 127.64358 | 16 ft | 17 kts | 12° |
| 2026-04-30 14:55 | 26.20928 | 127.64461 | 16 ft | 12 kts | 79° |
| 2026-04-30 14:55 | 26.20958 | 127.64559 | 16 ft | 14 kts | 68° |
| 2026-04-30 14:55 | 26.20988 | 127.64746 | 18 ft | 10 kts | 84° |
| 2026-04-30 14:56 | 26.20996 | 127.64874 | 19 ft | 1 kts | 74° |
| 2026-04-30 14:56 | 26.21005 | 127.64938 | 21 ft | 7 kts | 88° |
| 2026-04-30 14:57 | 26.21006 | 127.64966 | 21 ft | 8 kts | 88° |
| 2026-04-30 14:57 | 26.21007 | 127.64985 | 21 ft | 0 kts | 87° |